sensor_id;sensor_type;location;lat;lon;timestamp;pressure;altitude;pressure_sealevel;temperature;humidity
49342;BME280;35210;41.606;-87.602;2023-07-13T00:00:58;98435.56;;;27.48;96.67
49342;BME280;35210;41.606;-87.602;2023-07-13T00:03:26;98450.50;;;27.51;96.45
49342;BME280;35210;41.606;-87.602;2023-07-13T00:06:02;98469.50;;;27.51;96.93
49342;BME280;35210;41.606;-87.602;2023-07-13T00:08:31;98461.09;;;27.53;95.28
49342;BME280;35210;41.606;-87.602;2023-07-13T00:11:01;98473.66;;;27.59;96.37
49342;BME280;35210;41.606;-87.602;2023-07-13T00:13:29;98463.88;;;27.58;96.54
49342;BME280;35210;41.606;-87.602;2023-07-13T00:15:58;98478.19;;;27.53;90.77
49342;BME280;35210;41.606;-87.602;2023-07-13T00:18:28;98467.66;;;27.57;89.12
49342;BME280;35210;41.606;-87.602;2023-07-13T00:20:57;98466.69;;;27.63;88.89
49342;BME280;35210;41.606;-87.602;2023-07-13T00:23:32;98459.28;;;27.58;88.79
49342;BME280;35210;41.606;-87.602;2023-07-13T00:26:01;98458.00;;;27.61;88.88
49342;BME280;35210;41.606;-87.602;2023-07-13T00:28:29;98463.41;;;27.61;89.69
49342;BME280;35210;41.606;-87.602;2023-07-13T00:30:57;98459.38;;;27.63;89.79
49342;BME280;35210;41.606;-87.602;2023-07-13T00:33:26;98441.13;;;27.59;90.67
49342;BME280;35210;41.606;-87.602;2023-07-13T00:35:55;98451.91;;;27.54;91.03
49342;BME280;35210;41.606;-87.602;2023-07-13T00:38:24;98443.19;;;27.52;91.27
49342;BME280;35210;41.606;-87.602;2023-07-13T00:40:54;98443.19;;;27.52;91.49
49342;BME280;35210;41.606;-87.602;2023-07-13T00:43:26;98465.72;;;27.52;92.27
49342;BME280;35210;41.606;-87.602;2023-07-13T00:46:20;98463.25;;;27.50;92.22
49342;BME280;35210;41.606;-87.602;2023-07-13T00:48:49;98457.78;;;27.45;92.87
49342;BME280;35210;41.606;-87.602;2023-07-13T00:51:23;98455.00;;;27.40;93.83
49342;BME280;35210;41.606;-87.602;2023-07-13T00:53:54;98475.63;;;27.41;93.95
49342;BME280;35210;41.606;-87.602;2023-07-13T00:56:26;98493.78;;;27.41;94.25
49342;BME280;35210;41.606;-87.602;2023-07-13T00:58:57;98502.41;;;27.38;94.87
49342;BME280;35210;41.606;-87.602;2023-07-13T01:01:27;98496.66;;;27.34;95.78
49342;BME280;35210;41.606;-87.602;2023-07-13T01:03:56;98502.09;;;27.34;96.03
49342;BME280;35210;41.606;-87.602;2023-07-13T01:06:24;98508.66;;;27.38;95.93
49342;BME280;35210;41.606;-87.602;2023-07-13T01:08:53;98516.22;;;27.36;96.44
49342;BME280;35210;41.606;-87.602;2023-07-13T01:11:21;98521.97;;;27.40;96.62
49342;BME280;35210;41.606;-87.602;2023-07-13T01:13:51;98528.63;;;27.32;97.76
49342;BME280;35210;41.606;-87.602;2023-07-13T01:16:24;98544.72;;;27.39;97.37
49342;BME280;35210;41.606;-87.602;2023-07-13T01:18:52;98543.00;;;27.33;94.73
49342;BME280;35210;41.606;-87.602;2023-07-13T01:21:22;98567.16;;;27.17;92.04
49342;BME280;35210;41.606;-87.602;2023-07-13T01:23:50;98569.69;;;27.07;91.55
49342;BME280;35210;41.606;-87.602;2023-07-13T01:26:18;98570.22;;;26.93;90.61
49342;BME280;35210;41.606;-87.602;2023-07-13T01:28:46;98585.31;;;26.89;91.27
49342;BME280;35210;41.606;-87.602;2023-07-13T01:31:14;98581.34;;;26.79;90.46
49342;BME280;35210;41.606;-87.602;2023-07-13T01:33:42;98591.94;;;26.64;91.06
49342;BME280;35210;41.606;-87.602;2023-07-13T01:36:11;98587.97;;;26.55;90.00
49342;BME280;35210;41.606;-87.602;2023-07-13T01:42:21;98611.91;;;26.35;89.69
49342;BME280;35210;41.606;-87.602;2023-07-13T01:44:53;98612.25;;;26.27;90.59
49342;BME280;35210;41.606;-87.602;2023-07-13T01:47:22;98614.28;;;26.19;90.25
49342;BME280;35210;41.606;-87.602;2023-07-13T01:49:52;98623.69;;;26.17;90.10
49342;BME280;35210;41.606;-87.602;2023-07-13T01:52:20;98623.94;;;26.15;89.89
49342;BME280;35210;41.606;-87.602;2023-07-13T01:54:49;98634.06;;;26.08;89.36
49342;BME280;35210;41.606;-87.602;2023-07-13T01:57:19;98636.66;;;26.03;89.23
49342;BME280;35210;41.606;-87.602;2023-07-13T01:59:50;98645.16;;;25.95;88.49
49342;BME280;35210;41.606;-87.602;2023-07-13T02:02:18;98645.28;;;25.89;86.89
49342;BME280;35210;41.606;-87.602;2023-07-13T02:04:48;98651.97;;;25.86;87.17
49342;BME280;35210;41.606;-87.602;2023-07-13T02:07:17;98660.44;;;25.78;86.66
49342;BME280;35210;41.606;-87.602;2023-07-13T02:09:46;98666.31;;;25.75;87.02
49342;BME280;35210;41.606;-87.602;2023-07-13T02:12:14;98680.53;;;25.70;87.16
49342;BME280;35210;41.606;-87.602;2023-07-13T02:14:44;98680.63;;;25.64;87.03
49342;BME280;35210;41.606;-87.602;2023-07-13T02:17:13;98684.00;;;25.59;86.87
49342;BME280;35210;41.606;-87.602;2023-07-13T02:19:41;98691.53;;;25.57;87.28
49342;BME280;35210;41.606;-87.602;2023-07-13T02:22:09;98688.84;;;25.57;87.56
49342;BME280;35210;41.606;-87.602;2023-07-13T02:24:39;98706.09;;;25.56;86.75
49342;BME280;35210;41.606;-87.602;2023-07-13T02:27:07;98709.16;;;25.48;87.90
49342;BME280;35210;41.606;-87.602;2023-07-13T02:29:38;98716.66;;;25.46;87.76
49342;BME280;35210;41.606;-87.602;2023-07-13T02:32:10;98722.53;;;25.43;87.75
49342;BME280;35210;41.606;-87.602;2023-07-13T02:34:40;98734.81;;;25.27;88.81
49342;BME280;35210;41.606;-87.602;2023-07-13T02:37:09;98740.56;;;25.19;88.09
49342;BME280;35210;41.606;-87.602;2023-07-13T02:39:38;98742.25;;;25.02;88.36
49342;BME280;35210;41.606;-87.602;2023-07-13T02:42:07;98742.31;;;24.95;89.05
49342;BME280;35210;41.606;-87.602;2023-07-13T02:44:36;98757.75;;;24.88;89.44
49342;BME280;35210;41.606;-87.602;2023-07-13T02:47:04;98756.78;;;24.82;90.08
49342;BME280;35210;41.606;-87.602;2023-07-13T02:49:34;98754.78;;;24.78;90.21
49342;BME280;35210;41.606;-87.602;2023-07-13T02:52:03;98762.13;;;24.71;90.52
49342;BME280;35210;41.606;-87.602;2023-07-13T02:54:31;98763.41;;;24.68;90.34
49342;BME280;35210;41.606;-87.602;2023-07-13T02:57:00;98767.16;;;24.67;90.87
49342;BME280;35210;41.606;-87.602;2023-07-13T02:59:28;98764.91;;;24.64;90.57
49342;BME280;35210;41.606;-87.602;2023-07-13T03:01:57;98763.84;;;24.65;90.40
49342;BME280;35210;41.606;-87.602;2023-07-13T03:04:25;98775.91;;;24.63;90.58
49342;BME280;35210;41.606;-87.602;2023-07-13T03:06:55;98790.09;;;24.58;91.11
49342;BME280;35210;41.606;-87.602;2023-07-13T03:09:24;98783.63;;;24.59;91.65
49342;BME280;35210;41.606;-87.602;2023-07-13T03:11:53;98792.72;;;24.65;91.11
49342;BME280;35210;41.606;-87.602;2023-07-13T03:14:22;98803.28;;;24.66;91.15
49342;BME280;35210;41.606;-87.602;2023-07-13T03:16:51;98813.63;;;24.69;91.52
49342;BME280;35210;41.606;-87.602;2023-07-13T03:19:19;98822.47;;;24.58;91.02
49342;BME280;35210;41.606;-87.602;2023-07-13T03:21:47;98830.13;;;24.43;90.75
49342;BME280;35210;41.606;-87.602;2023-07-13T03:24:17;98827.72;;;24.35;90.70
49342;BME280;35210;41.606;-87.602;2023-07-13T03:26:46;98835.72;;;24.16;91.40
49342;BME280;35210;41.606;-87.602;2023-07-13T03:29:14;98840.78;;;24.06;91.79
49342;BME280;35210;41.606;-87.602;2023-07-13T03:31:42;98843.13;;;23.96;91.82
49342;BME280;35210;41.606;-87.602;2023-07-13T03:34:12;98842.94;;;23.91;92.24
49342;BME280;35210;41.606;-87.602;2023-07-13T03:36:43;98852.94;;;23.84;92.05
49342;BME280;35210;41.606;-87.602;2023-07-13T03:39:11;98855.47;;;23.79;92.25
49342;BME280;35210;41.606;-87.602;2023-07-13T03:41:40;98860.16;;;23.65;92.15
49342;BME280;35210;41.606;-87.602;2023-07-13T03:44:09;98866.78;;;23.63;92.61
49342;BME280;35210;41.606;-87.602;2023-07-13T03:46:37;98870.97;;;23.58;92.07
49342;BME280;35210;41.606;-87.602;2023-07-13T03:49:05;98876.59;;;23.44;92.85
49342;BME280;35210;41.606;-87.602;2023-07-13T03:51:36;98886.16;;;23.33;93.72
49342;BME280;35210;41.606;-87.602;2023-07-13T03:54:04;98879.53;;;23.36;94.07
49342;BME280;35210;41.606;-87.602;2023-07-13T03:56:33;98884.31;;;23.27;94.27
49342;BME280;35210;41.606;-87.602;2023-07-13T03:59:03;98875.22;;;23.28;93.88
49342;BME280;35210;41.606;-87.602;2023-07-13T04:01:34;98875.66;;;23.18;94.68
49342;BME280;35210;41.606;-87.602;2023-07-13T04:04:02;98872.34;;;23.16;95.53
49342;BME280;35210;41.606;-87.602;2023-07-13T04:06:30;98878.13;;;23.20;94.80
49342;BME280;35210;41.606;-87.602;2023-07-13T04:09:00;98878.75;;;23.22;95.15
49342;BME280;35210;41.606;-87.602;2023-07-13T04:11:30;98879.78;;;23.21;94.68
49342;BME280;35210;41.606;-87.602;2023-07-13T04:13:59;98879.38;;;23.17;94.60
49342;BME280;35210;41.606;-87.602;2023-07-13T04:16:29;98882.69;;;23.19;95.04
49342;BME280;35210;41.606;-87.602;2023-07-13T04:18:57;98877.94;;;23.15;95.00
49342;BME280;35210;41.606;-87.602;2023-07-13T04:21:27;98870.94;;;23.07;94.71
49342;BME280;35210;41.606;-87.602;2023-07-13T04:23:55;98878.38;;;23.05;95.37
49342;BME280;35210;41.606;-87.602;2023-07-13T04:26:25;98876.53;;;23.06;95.54
49342;BME280;35210;41.606;-87.602;2023-07-13T04:28:57;98887.56;;;22.98;96.19
49342;BME280;35210;41.606;-87.602;2023-07-13T04:31:25;98893.75;;;22.98;95.81
49342;BME280;35210;41.606;-87.602;2023-07-13T04:33:56;98890.66;;;22.94;95.58
49342;BME280;35210;41.606;-87.602;2023-07-13T04:36:24;98899.78;;;22.93;96.30
49342;BME280;35210;41.606;-87.602;2023-07-13T04:38:54;98900.41;;;22.96;95.90
49342;BME280;35210;41.606;-87.602;2023-07-13T04:41:22;98908.69;;;22.94;96.25
49342;BME280;35210;41.606;-87.602;2023-07-13T04:43:50;98903.94;;;22.89;96.55
49342;BME280;35210;41.606;-87.602;2023-07-13T04:46:18;98907.25;;;22.91;96.56
49342;BME280;35210;41.606;-87.602;2023-07-13T04:48:48;98912.19;;;22.94;96.25
49342;BME280;35210;41.606;-87.602;2023-07-13T04:51:18;98915.94;;;22.93;96.50
49342;BME280;35210;41.606;-87.602;2023-07-13T04:53:46;98915.09;;;22.93;96.65
49342;BME280;35210;41.606;-87.602;2023-07-13T04:56:14;98917.59;;;22.94;96.70
49342;BME280;35210;41.606;-87.602;2023-07-13T04:58:43;98912.56;;;23.05;96.01
49342;BME280;35210;41.606;-87.602;2023-07-13T05:01:11;98913.81;;;23.09;95.00
49342;BME280;35210;41.606;-87.602;2023-07-13T05:03:39;98910.75;;;22.92;96.11
49342;BME280;35210;41.606;-87.602;2023-07-13T05:06:08;98919.66;;;22.86;96.47
49342;BME280;35210;41.606;-87.602;2023-07-13T05:08:40;98921.34;;;22.80;97.30
49342;BME280;35210;41.606;-87.602;2023-07-13T05:11:08;98928.38;;;22.81;97.36
49342;BME280;35210;41.606;-87.602;2023-07-13T05:13:36;98925.25;;;22.84;97.22
49342;BME280;35210;41.606;-87.602;2023-07-13T05:16:05;98921.53;;;22.85;96.92
49342;BME280;35210;41.606;-87.602;2023-07-13T05:18:34;98923.59;;;22.83;97.08
49342;BME280;35210;41.606;-87.602;2023-07-13T05:21:04;98925.44;;;22.76;97.31
49342;BME280;35210;41.606;-87.602;2023-07-13T05:23:33;98928.97;;;22.77;97.45
49342;BME280;35210;41.606;-87.602;2023-07-13T05:26:04;98921.94;;;22.82;96.81
49342;BME280;35210;41.606;-87.602;2023-07-13T05:28:35;98920.09;;;22.83;95.99
49342;BME280;35210;41.606;-87.602;2023-07-13T05:31:10;98925.44;;;22.76;95.12
49342;BME280;35210;41.606;-87.602;2023-07-13T05:33:39;98924.22;;;22.72;95.47
49342;BME280;35210;41.606;-87.602;2023-07-13T05:36:09;98925.03;;;22.66;95.46
49342;BME280;35210;41.606;-87.602;2023-07-13T05:38:38;98928.56;;;22.60;95.50
49342;BME280;35210;41.606;-87.602;2023-07-13T05:41:13;98927.31;;;22.56;95.60
49342;BME280;35210;41.606;-87.602;2023-07-13T05:43:46;98930.84;;;22.56;95.70
49342;BME280;35210;41.606;-87.602;2023-07-13T05:46:14;98922.75;;;22.56;96.02
49342;BME280;35210;41.606;-87.602;2023-07-13T05:48:45;98934.97;;;22.59;95.76
49342;BME280;35210;41.606;-87.602;2023-07-13T05:51:13;98920.47;;;22.53;95.83
49342;BME280;35210;41.606;-87.602;2023-07-13T05:53:42;98943.25;;;22.51;96.31
49342;BME280;35210;41.606;-87.602;2023-07-13T05:56:12;98952.34;;;22.50;96.67
49342;BME280;35210;41.606;-87.602;2023-07-13T05:58:47;98949.03;;;22.48;96.59
49342;BME280;35210;41.606;-87.602;2023-07-13T06:01:17;98940.97;;;22.48;95.99
49342;BME280;35210;41.606;-87.602;2023-07-13T06:03:46;98939.31;;;22.47;96.33
49342;BME280;35210;41.606;-87.602;2023-07-13T06:06:15;98932.50;;;22.51;96.08
49342;BME280;35210;41.606;-87.602;2023-07-13T06:08:46;98924.00;;;22.41;96.00
49342;BME280;35210;41.606;-87.602;2023-07-13T06:11:17;98926.06;;;22.39;96.99
49342;BME280;35210;41.606;-87.602;2023-07-13T06:13:45;98918.81;;;22.39;97.03
49342;BME280;35210;41.606;-87.602;2023-07-13T06:16:14;98916.56;;;22.43;96.83
49342;BME280;35210;41.606;-87.602;2023-07-13T06:18:42;98915.09;;;22.40;97.35
49342;BME280;35210;41.606;-87.602;2023-07-13T06:21:12;98921.72;;;22.51;96.41
49342;BME280;35210;41.606;-87.602;2023-07-13T06:23:41;98920.06;;;22.50;96.22
49342;BME280;35210;41.606;-87.602;2023-07-13T06:26:09;98913.66;;;22.44;96.39
49342;BME280;35210;41.606;-87.602;2023-07-13T06:28:39;98912.22;;;22.42;96.26
49342;BME280;35210;41.606;-87.602;2023-07-13T06:31:09;98917.59;;;22.42;96.29
49342;BME280;35210;41.606;-87.602;2023-07-13T06:33:37;98924.22;;;22.39;96.39
49342;BME280;35210;41.606;-87.602;2023-07-13T06:36:06;98921.72;;;22.38;96.38
49342;BME280;35210;41.606;-87.602;2023-07-13T06:38:35;98929.16;;;22.36;96.68
49342;BME280;35210;41.606;-87.602;2023-07-13T06:41:06;98929.59;;;22.39;96.52
49342;BME280;35210;41.606;-87.602;2023-07-13T06:43:34;98924.41;;;22.44;95.77
49342;BME280;35210;41.606;-87.602;2023-07-13T06:46:04;98925.66;;;22.42;96.11
49342;BME280;35210;41.606;-87.602;2023-07-13T06:48:32;98937.03;;;22.37;96.39
49342;BME280;35210;41.606;-87.602;2023-07-13T06:51:02;98932.28;;;22.33;95.70
49342;BME280;35210;41.606;-87.602;2023-07-13T06:53:30;98934.97;;;22.39;95.33
49342;BME280;35210;41.606;-87.602;2023-07-13T06:55:58;98932.91;;;22.41;95.24
49342;BME280;35210;41.606;-87.602;2023-07-13T06:58:26;98941.59;;;22.37;94.99
49342;BME280;35210;41.606;-87.602;2023-07-13T07:00:55;98948.44;;;22.26;95.68
49342;BME280;35210;41.606;-87.602;2023-07-13T07:03:24;98934.97;;;22.19;96.39
49342;BME280;35210;41.606;-87.602;2023-07-13T07:05:52;98939.09;;;22.15;96.48
49342;BME280;35210;41.606;-87.602;2023-07-13T07:08:20;98943.66;;;22.15;96.69
49342;BME280;35210;41.606;-87.602;2023-07-13T07:10:48;98946.13;;;22.16;96.90
49342;BME280;35210;41.606;-87.602;2023-07-13T07:13:20;98951.50;;;22.16;97.21
49342;BME280;35210;41.606;-87.602;2023-07-13T07:15:50;98946.97;;;22.17;97.01
49342;BME280;35210;41.606;-87.602;2023-07-13T07:18:18;98951.09;;;22.19;96.82
49342;BME280;35210;41.606;-87.602;2023-07-13T07:20:49;98947.16;;;22.15;97.07
49342;BME280;35210;41.606;-87.602;2023-07-13T07:23:17;98946.97;;;22.17;97.12
49342;BME280;35210;41.606;-87.602;2023-07-13T07:25:45;98943.44;;;22.16;97.21
49342;BME280;35210;41.606;-87.602;2023-07-13T07:28:15;98943.25;;;22.18;97.01
49342;BME280;35210;41.606;-87.602;2023-07-13T07:30:45;98949.44;;;22.18;96.77
49342;BME280;35210;41.606;-87.602;2023-07-13T07:33:13;98957.72;;;22.17;96.97
49342;BME280;35210;41.606;-87.602;2023-07-13T07:35:43;98962.28;;;22.16;96.80
49342;BME280;35210;41.606;-87.602;2023-07-13T07:38:13;98958.97;;;22.14;96.67
49342;BME280;35210;41.606;-87.602;2023-07-13T07:40:41;98961.44;;;22.16;96.61
49342;BME280;35210;41.606;-87.602;2023-07-13T07:43:11;98957.50;;;22.18;95.96
49342;BME280;35210;41.606;-87.602;2023-07-13T07:45:40;98956.88;;;22.16;95.75
49342;BME280;35210;41.606;-87.602;2023-07-13T07:48:08;98963.09;;;22.17;95.90
49342;BME280;35210;41.606;-87.602;2023-07-13T07:50:36;98962.47;;;22.15;96.06
49342;BME280;35210;41.606;-87.602;2023-07-13T07:53:05;98953.97;;;22.11;96.15
49342;BME280;35210;41.606;-87.602;2023-07-13T07:55:38;98952.94;;;22.12;96.11
49342;BME280;35210;41.606;-87.602;2023-07-13T07:58:06;98950.66;;;22.09;96.21
49342;BME280;35210;41.606;-87.602;2023-07-13T08:00:34;98953.16;;;22.11;95.98
49342;BME280;35210;41.606;-87.602;2023-07-13T08:03:02;98954.38;;;22.08;96.07
49342;BME280;35210;41.606;-87.602;2023-07-13T08:05:30;98956.88;;;22.10;96.13
49342;BME280;35210;41.606;-87.602;2023-07-13T08:07:59;98952.31;;;22.10;96.15
49342;BME280;35210;41.606;-87.602;2023-07-13T08:10:27;98968.47;;;22.10;96.10
49342;BME280;35210;41.606;-87.602;2023-07-13T08:12:56;98953.34;;;22.09;96.60
49342;BME280;35210;41.606;-87.602;2023-07-13T08:15:25;98956.03;;;22.09;96.67
49342;BME280;35210;41.606;-87.602;2023-07-13T08:17:53;98949.00;;;22.08;96.49
49342;BME280;35210;41.606;-87.602;2023-07-13T08:20:22;98949.00;;;22.08;96.56
49342;BME280;35210;41.606;-87.602;2023-07-13T08:22:50;98948.81;;;22.10;96.16
49342;BME280;35210;41.606;-87.602;2023-07-13T08:25:18;98945.91;;;22.11;95.87
49342;BME280;35210;41.606;-87.602;2023-07-13T08:27:46;98944.88;;;22.12;95.66
49342;BME280;35210;41.606;-87.602;2023-07-13T08:30:16;98938.66;;;22.05;95.81
49342;BME280;35210;41.606;-87.602;2023-07-13T08:32:44;98941.56;;;22.04;96.04
49342;BME280;35210;41.606;-87.602;2023-07-13T08:35:12;98939.06;;;22.02;96.22
49342;BME280;35210;41.606;-87.602;2023-07-13T08:37:42;98931.00;;;22.02;96.36
49342;BME280;35210;41.606;-87.602;2023-07-13T08:40:11;98927.91;;;22.05;95.88
49342;BME280;35210;41.606;-87.602;2023-07-13T08:42:44;98921.31;;;22.08;96.22
49342;BME280;35210;41.606;-87.602;2023-07-13T08:45:20;98919.22;;;22.03;96.26
49342;BME280;35210;41.606;-87.602;2023-07-13T08:47:53;98928.69;;;21.99;96.55
49342;BME280;35210;41.606;-87.602;2023-07-13T08:50:26;98933.66;;;21.95;96.80
49342;BME280;35210;41.606;-87.602;2023-07-13T08:52:57;98935.72;;;21.93;97.09
49342;BME280;35210;41.606;-87.602;2023-07-13T08:55:30;98932.81;;;21.95;96.82
49342;BME280;35210;41.606;-87.602;2023-07-13T08:58:03;98936.53;;;21.94;96.74
49342;BME280;35210;41.606;-87.602;2023-07-13T09:00:43;98940.88;;;21.95;96.39
49342;BME280;35210;41.606;-87.602;2023-07-13T09:03:18;98948.31;;;21.93;96.79
49342;BME280;35210;41.606;-87.602;2023-07-13T09:05:51;98952.25;;;21.90;97.04
49342;BME280;35210;41.606;-87.602;2023-07-13T09:08:34;98957.19;;;21.87;97.11
49342;BME280;35210;41.606;-87.602;2023-07-13T09:11:14;98950.78;;;21.88;97.11
49342;BME280;35210;41.606;-87.602;2023-07-13T09:13:51;98951.00;;;21.93;96.69
49342;BME280;35210;41.606;-87.602;2023-07-13T09:16:25;98959.47;;;21.90;96.89
49342;BME280;35210;41.606;-87.602;2023-07-13T09:18:58;98953.88;;;21.85;96.86
49342;BME280;35210;41.606;-87.602;2023-07-13T09:21:32;98959.47;;;21.90;97.10
49342;BME280;35210;41.606;-87.602;2023-07-13T09:24:22;98963.81;;;21.84;96.73
49342;BME280;35210;41.606;-87.602;2023-07-13T09:26:55;98966.69;;;21.83;96.44
49342;BME280;35210;41.606;-87.602;2023-07-13T09:29:28;98974.31;;;21.79;96.95
49342;BME280;35210;41.606;-87.602;2023-07-13T09:32:02;98978.25;;;21.77;97.30
49342;BME280;35210;41.606;-87.602;2023-07-13T09:34:32;98987.34;;;21.76;97.48
49342;BME280;35210;41.606;-87.602;2023-07-13T09:37:01;98978.25;;;21.77;97.61
49342;BME280;35210;41.606;-87.602;2023-07-13T09:39:33;98986.31;;;21.77;97.69
49342;BME280;35210;41.606;-87.602;2023-07-13T09:42:11;98977.41;;;21.76;97.49
49342;BME280;35210;41.606;-87.602;2023-07-13T09:44:54;98975.78;;;21.82;97.21
49342;BME280;35210;41.606;-87.602;2023-07-13T09:47:25;98967.13;;;21.86;97.00
49342;BME280;35210;41.606;-87.602;2023-07-13T09:49:58;98976.84;;;21.87;97.13
49342;BME280;35210;41.606;-87.602;2023-07-13T09:52:28;98974.56;;;21.91;96.36
49342;BME280;35210;41.606;-87.602;2023-07-13T09:55:23;98975.19;;;21.86;96.59
49342;BME280;35210;41.606;-87.602;2023-07-13T09:57:54;98974.16;;;21.87;96.10
49342;BME280;35210;41.606;-87.602;2023-07-13T10:00:24;98975.59;;;21.90;96.07
49342;BME280;35210;41.606;-87.602;2023-07-13T10:05:49;98980.72;;;21.78;96.97
49342;BME280;35210;41.606;-87.602;2023-07-13T10:08:24;98979.47;;;21.74;97.13
49342;BME280;35210;41.606;-87.602;2023-07-13T10:10:58;98986.31;;;21.77;96.83
49342;BME280;35210;41.606;-87.602;2023-07-13T10:13:32;98977.44;;;21.83;96.35
49342;BME280;35210;41.606;-87.602;2023-07-13T10:16:04;98990.19;;;21.68;96.32
49342;BME280;35210;41.606;-87.602;2023-07-13T10:18:40;98989.78;;;21.71;96.62
49342;BME280;35210;41.606;-87.602;2023-07-13T10:21:15;98978.00;;;21.72;96.49
49342;BME280;35210;41.606;-87.602;2023-07-13T10:23:45;98985.84;;;21.67;96.56
49342;BME280;35210;41.606;-87.602;2023-07-13T10:26:19;98993.72;;;21.68;97.09
49342;BME280;35210;41.606;-87.602;2023-07-13T10:28:52;98994.50;;;21.62;96.88
49342;BME280;35210;41.606;-87.602;2023-07-13T10:31:23;98999.44;;;21.58;97.03
49342;BME280;35210;41.606;-87.602;2023-07-13T10:33:52;99002.13;;;21.58;97.04
49342;BME280;35210;41.606;-87.602;2023-07-13T10:36:40;99003.78;;;21.59;97.22
49342;BME280;35210;41.606;-87.602;2023-07-13T10:39:16;99011.03;;;21.59;97.33
49342;BME280;35210;41.606;-87.602;2023-07-13T10:41:48;99014.94;;;21.56;97.35
49342;BME280;35210;41.606;-87.602;2023-07-13T10:44:22;99020.31;;;21.56;97.59
49342;BME280;35210;41.606;-87.602;2023-07-13T10:46:57;99027.97;;;21.59;97.59
49342;BME280;35210;41.606;-87.602;2023-07-13T10:49:28;99029.63;;;21.60;97.27
49342;BME280;35210;41.606;-87.602;2023-07-13T10:51:58;99032.72;;;21.57;97.22
49342;BME280;35210;41.606;-87.602;2023-07-13T10:54:31;99035.19;;;21.59;97.13
49342;BME280;35210;41.606;-87.602;2023-07-13T10:57:16;99033.97;;;21.61;96.92
49342;BME280;35210;41.606;-87.602;2023-07-13T10:59:48;99048.44;;;21.60;96.67
49342;BME280;35210;41.606;-87.602;2023-07-13T11:02:24;99049.47;;;21.59;96.72
49342;BME280;35210;41.606;-87.602;2023-07-13T11:04:55;99038.72;;;21.59;96.47
49342;BME280;35210;41.606;-87.602;2023-07-13T11:07:27;99037.94;;;21.65;96.01
49342;BME280;35210;41.606;-87.602;2023-07-13T11:09:56;99032.78;;;21.71;95.19
49342;BME280;35210;41.606;-87.602;2023-07-13T11:15:12;99034.41;;;21.65;95.63
49342;BME280;35210;41.606;-87.602;2023-07-13T11:17:49;99033.38;;;21.66;95.18
49342;BME280;35210;41.606;-87.602;2023-07-13T11:20:39;99042.44;;;21.58;95.78
49342;BME280;35210;41.606;-87.602;2023-07-13T11:23:27;99049.66;;;21.51;96.46
49342;BME280;35210;41.606;-87.602;2023-07-13T11:25:57;99050.69;;;21.50;96.98
49342;BME280;35210;41.606;-87.602;2023-07-13T11:28:30;99050.69;;;21.50;97.00
49342;BME280;35210;41.606;-87.602;2023-07-13T11:31:12;99050.47;;;21.52;96.83
49342;BME280;35210;41.606;-87.602;2023-07-13T11:33:51;99043.25;;;21.52;96.93
49342;BME280;35210;41.606;-87.602;2023-07-13T11:36:24;99048.19;;;21.55;96.42
49342;BME280;35210;41.606;-87.602;2023-07-13T11:39:04;99060.19;;;21.53;96.00
49342;BME280;35210;41.606;-87.602;2023-07-13T11:41:44;99061.22;;;21.52;96.03
49342;BME280;35210;41.606;-87.602;2023-07-13T11:44:16;99064.13;;;21.50;95.99
49342;BME280;35210;41.606;-87.602;2023-07-13T11:46:46;99054.41;;;21.49;96.19
49342;BME280;35210;41.606;-87.602;2023-07-13T11:49:19;99055.41;;;21.48;96.71
49342;BME280;35210;41.606;-87.602;2023-07-13T11:51:48;99062.44;;;21.49;96.54
49342;BME280;35210;41.606;-87.602;2023-07-13T11:54:29;99070.72;;;21.48;96.81
49342;BME280;35210;41.606;-87.602;2023-07-13T11:57:03;99073.66;;;21.59;95.96
49342;BME280;35210;41.606;-87.602;2023-07-13T11:59:39;99069.94;;;21.60;95.64
49342;BME280;35210;41.606;-87.602;2023-07-13T12:02:16;99074.25;;;21.55;95.60
49342;BME280;35210;41.606;-87.602;2023-07-13T12:04:46;99064.13;;;21.50;95.94
49342;BME280;35210;41.606;-87.602;2023-07-13T12:07:17;99069.88;;;21.47;96.07
49342;BME280;35210;41.606;-87.602;2023-07-13T12:09:47;99079.59;;;21.48;96.23
49342;BME280;35210;41.606;-87.602;2023-07-13T12:12:19;99088.28;;;21.50;95.53
49342;BME280;35210;41.606;-87.602;2023-07-13T12:14:51;99082.91;;;21.50;95.49
49342;BME280;35210;41.606;-87.602;2023-07-13T12:17:22;99090.34;;;21.55;95.29
49342;BME280;35210;41.606;-87.602;2023-07-13T12:19:52;99091.81;;;21.51;95.54
49342;BME280;35210;41.606;-87.602;2023-07-13T12:22:21;99095.53;;;21.50;95.88
49342;BME280;35210;41.606;-87.602;2023-07-13T12:24:51;99090.97;;;21.50;96.16
49342;BME280;35210;41.606;-87.602;2023-07-13T12:27:22;99098.00;;;21.51;96.10
49342;BME280;35210;41.606;-87.602;2023-07-13T12:29:56;99106.69;;;21.53;96.14
49342;BME280;35210;41.606;-87.602;2023-07-13T12:32:26;99100.28;;;21.54;95.99
49342;BME280;35210;41.606;-87.602;2023-07-13T12:35:04;99092.22;;;21.54;96.33
49342;BME280;35210;41.606;-87.602;2023-07-13T12:37:35;99103.41;;;21.58;96.10
49342;BME280;35210;41.606;-87.602;2023-07-13T12:40:12;99112.47;;;21.57;96.32
49342;BME280;35210;41.606;-87.602;2023-07-13T12:42:41;99107.31;;;21.55;96.49
49342;BME280;35210;41.606;-87.602;2023-07-13T12:45:18;99100.91;;;21.56;96.67
49342;BME280;35210;41.606;-87.602;2023-07-13T12:47:49;99104.63;;;21.55;96.76
49342;BME280;35210;41.606;-87.602;2023-07-13T12:50:19;99110.00;;;21.55;97.18
49342;BME280;35210;41.606;-87.602;2023-07-13T12:52:51;99107.53;;;21.60;96.48
49342;BME280;35210;41.606;-87.602;2023-07-13T12:55:22;99100.72;;;21.58;96.46
49342;BME280;35210;41.606;-87.602;2023-07-13T12:57:53;99106.38;;;21.70;95.81
49342;BME280;35210;41.606;-87.602;2023-07-13T13:00:28;99106.38;;;21.70;95.86
49342;BME280;35210;41.606;-87.602;2023-07-13T13:03:03;99100.13;;;21.62;95.78
49342;BME280;35210;41.606;-87.602;2023-07-13T13:05:34;99107.53;;;21.60;95.91
49342;BME280;35210;41.606;-87.602;2023-07-13T13:08:04;99098.84;;;21.58;96.38